createdAt,value
2017-09-23T00:01:30.219Z,11.60
2017-09-23T00:03:59.082Z,11.60
2017-09-23T00:06:27.943Z,11.60
2017-09-23T00:08:56.823Z,11.60
2017-09-23T00:11:25.676Z,11.50
2017-09-23T00:13:54.555Z,11.40
2017-09-23T00:16:23.419Z,11.40
2017-09-23T00:18:53.069Z,11.40
2017-09-23T00:21:21.940Z,11.40
2017-09-23T00:23:50.802Z,11.40
2017-09-23T00:26:19.662Z,11.50
2017-09-23T00:28:48.979Z,11.50
2017-09-23T00:31:17.839Z,11.60
2017-09-23T00:33:46.700Z,11.50
2017-09-23T00:36:15.561Z,11.50
2017-09-23T00:38:44.419Z,11.50
2017-09-23T00:41:13.281Z,11.50
2017-09-23T00:43:41.814Z,11.50
2017-09-23T00:46:10.674Z,11.50
2017-09-23T00:48:39.542Z,11.30
2017-09-23T00:51:07.708Z,11.20
2017-09-23T00:53:36.636Z,11.20
2017-09-23T00:56:05.514Z,11.20
2017-09-23T00:58:34.366Z,11.30
2017-09-23T01:01:03.091Z,11.30
2017-09-23T01:03:31.960Z,11.30
2017-09-23T01:06:01.588Z,11.30
2017-09-23T01:08:30.103Z,11.20
2017-09-23T01:10:58.264Z,11.20
2017-09-23T01:13:27.120Z,11.20
2017-09-23T01:15:55.983Z,11.10
2017-09-23T01:18:24.491Z,11.10
2017-09-23T01:20:54.128Z,11.20
2017-09-23T01:23:22.659Z,11.10
2017-09-23T01:25:51.195Z,11.10
2017-09-23T01:28:20.080Z,11.10
2017-09-23T01:30:48.264Z,11.10
2017-09-23T01:33:17.123Z,11.00
2017-09-23T01:35:45.997Z,11.00
2017-09-23T01:38:15.626Z,11.00
2017-09-23T01:40:45.247Z,11.00
2017-09-23T01:43:14.115Z,10.90
2017-09-23T01:45:43.744Z,10.90
2017-09-23T01:48:12.592Z,10.90
2017-09-23T01:50:41.460Z,10.90
2017-09-23T01:53:11.096Z,10.80
2017-09-23T01:55:39.972Z,10.80
2017-09-23T01:58:08.842Z,10.80
2017-09-23T02:00:37.728Z,10.80
2017-09-23T02:03:06.581Z,10.80
2017-09-23T02:05:35.437Z,10.80
2017-09-23T02:08:04.318Z,10.70
2017-09-23T02:10:33.186Z,10.70
2017-09-23T02:13:02.052Z,10.70
2017-09-23T02:15:31.688Z,10.60
2017-09-23T02:18:00.590Z,10.50
2017-09-23T02:20:29.706Z,10.50
2017-09-23T02:22:58.567Z,10.40
2017-09-23T02:25:27.435Z,10.40
2017-09-23T02:28:06.169Z,10.40
2017-09-23T02:30:35.300Z,10.30
2017-09-23T02:33:04.171Z,10.20
2017-09-23T02:35:33.041Z,10.10
2017-09-23T02:38:01.933Z,10.10
2017-09-23T02:40:30.837Z,10.10
2017-09-23T02:42:59.700Z,10.00
2017-09-23T02:45:29.343Z,10.10
2017-09-23T02:47:58.329Z,10.10
2017-09-23T02:50:27.191Z,10.10
2017-09-23T02:52:56.824Z,10.10
2017-09-23T02:55:25.685Z,10.10
2017-09-23T02:57:54.544Z,10.00
2017-09-23T03:00:23.503Z,10.00
2017-09-23T03:02:52.371Z,9.90
2017-09-23T03:05:21.979Z,9.90
2017-09-23T03:07:51.595Z,9.90
2017-09-23T03:10:21.225Z,9.90
2017-09-23T03:12:50.076Z,9.90
2017-09-23T03:15:19.716Z,9.90
2017-09-23T03:17:48.588Z,9.90
2017-09-23T03:20:18.215Z,9.90
2017-09-23T03:22:47.075Z,9.90
2017-09-23T03:25:16.704Z,9.90
2017-09-23T03:27:46.327Z,9.90
2017-09-23T03:30:15.188Z,9.90
2017-09-23T03:32:44.824Z,9.90
2017-09-23T03:35:13.676Z,9.90
2017-09-23T03:37:42.540Z,9.90
2017-09-23T03:40:11.400Z,9.90
2017-09-23T03:42:40.216Z,9.90
2017-09-23T03:45:09.079Z,9.80
2017-09-23T03:47:37.934Z,9.80
2017-09-23T03:50:06.799Z,9.80
2017-09-23T03:52:35.656Z,9.80
2017-09-23T03:55:04.515Z,9.80
2017-09-23T03:57:33.378Z,9.80
2017-09-23T04:00:02.231Z,9.80
2017-09-23T04:02:31.847Z,9.70
2017-09-23T04:05:00.696Z,9.70
2017-09-23T04:07:29.544Z,9.80
2017-09-23T04:09:58.405Z,9.70
2017-09-23T04:12:27.252Z,9.80
2017-09-23T04:14:56.101Z,9.80
2017-09-23T04:17:24.775Z,9.80
2017-09-23T04:19:53.627Z,9.80
2017-09-23T04:22:22.488Z,9.80
2017-09-23T04:24:51.873Z,9.80
2017-09-23T04:27:20.725Z,9.80
2017-09-23T04:29:50.342Z,9.80
2017-09-23T04:32:19.970Z,9.80
2017-09-23T04:34:48.824Z,9.80
2017-09-23T04:37:17.676Z,9.80
2017-09-23T04:39:46.536Z,9.70
2017-09-23T04:42:15.387Z,9.70
2017-09-23T04:44:44.241Z,9.70
2017-09-23T04:47:14.079Z,9.70
2017-09-23T04:49:42.933Z,9.60
2017-09-23T04:52:11.797Z,9.60
2017-09-23T04:54:41.411Z,9.60
2017-09-23T04:57:11.057Z,9.50
2017-09-23T04:59:39.928Z,9.50
2017-09-23T05:02:08.798Z,9.60
2017-09-23T05:04:38.413Z,9.50
2017-09-23T05:07:08.064Z,9.50
2017-09-23T05:12:11.812Z,9.50
2017-09-23T05:14:40.671Z,9.50
2017-09-23T05:17:09.535Z,9.60
2017-09-23T05:19:38.413Z,9.60
2017-09-23T05:22:08.036Z,9.60
2017-09-23T05:24:36.894Z,9.50
2017-09-23T05:27:05.744Z,9.60
2017-09-23T05:29:35.403Z,9.60
2017-09-23T05:32:05.039Z,9.50
2017-09-23T05:34:33.891Z,9.50
2017-09-23T05:37:02.757Z,9.40
2017-09-23T05:39:31.617Z,9.40
2017-09-23T05:42:00.478Z,9.40
2017-09-23T05:44:30.101Z,9.40
2017-09-23T05:46:59.727Z,9.40
2017-09-23T05:49:28.597Z,9.40
2017-09-23T05:51:58.211Z,9.40
2017-09-23T05:54:27.834Z,9.40
2017-09-23T05:56:56.684Z,9.40
2017-09-23T05:59:25.533Z,9.40
2017-09-23T06:01:54.399Z,9.40
2017-09-23T06:04:23.296Z,9.40
2017-09-23T06:06:52.161Z,9.30
2017-09-23T06:09:21.595Z,9.40
2017-09-23T06:11:50.451Z,9.40
2017-09-23T06:14:19.306Z,9.40
2017-09-23T06:16:48.163Z,9.30
2017-09-23T06:19:17.088Z,9.30
2017-09-23T06:21:46.023Z,9.30
2017-09-23T06:24:15.651Z,9.40
2017-09-23T06:26:44.315Z,9.40
2017-09-23T06:29:13.751Z,9.40
2017-09-23T06:31:42.605Z,9.40
2017-09-23T06:34:11.308Z,9.40
2017-09-23T06:36:40.938Z,9.50
2017-09-23T06:39:09.804Z,9.50
2017-09-23T06:41:39.434Z,9.50
2017-09-23T06:44:09.317Z,9.50
2017-09-23T06:46:38.948Z,9.70
2017-09-23T06:49:07.829Z,9.70
2017-09-23T06:51:37.453Z,9.70
2017-09-23T06:54:06.127Z,9.70
2017-09-23T06:56:36.110Z,9.80
2017-09-23T06:59:05.004Z,9.80
2017-09-23T07:01:33.876Z,9.90
2017-09-23T07:04:02.733Z,9.90
2017-09-23T07:06:31.600Z,9.90
2017-09-23T07:09:01.227Z,9.90
2017-09-23T07:11:30.104Z,9.90
2017-09-23T07:13:59.848Z,10.10
2017-09-23T07:16:28.717Z,10.00
2017-09-23T07:18:57.595Z,10.10
2017-09-23T07:21:27.259Z,10.20
2017-09-23T07:23:56.125Z,10.30
2017-09-23T07:26:24.797Z,10.30
2017-09-23T07:28:55.442Z,10.40
2017-09-23T07:31:24.318Z,10.40
2017-09-23T07:33:53.944Z,10.70
2017-09-23T07:36:22.807Z,10.70
2017-09-23T07:38:51.676Z,10.90
2017-09-23T07:41:20.572Z,11.00
2017-09-23T07:43:49.444Z,11.30
2017-09-23T07:46:18.317Z,11.40
2017-09-23T07:48:47.181Z,11.60
2017-09-23T07:51:16.815Z,12.00
2017-09-23T07:53:45.724Z,12.00
2017-09-23T07:56:14.588Z,12.20
2017-09-23T07:58:43.448Z,12.40
2017-09-23T08:01:13.878Z,12.50
2017-09-23T08:03:43.514Z,12.70
2017-09-23T08:06:12.396Z,12.70
2017-09-23T08:08:41.255Z,12.90
2017-09-23T08:11:10.118Z,13.10
2017-09-23T08:13:38.790Z,13.20
2017-09-23T08:16:07.652Z,13.40
2017-09-23T08:18:37.271Z,13.80
2017-09-23T08:21:05.783Z,13.80
2017-09-23T08:23:36.144Z,14.20
2017-09-23T08:26:05.811Z,14.40
2017-09-23T08:28:34.659Z,14.40
2017-09-23T08:31:04.322Z,14.80
2017-09-23T08:33:33.863Z,14.80
2017-09-23T08:36:03.515Z,15.20
2017-09-23T08:38:32.382Z,15.20
2017-09-23T08:41:02.017Z,15.60
2017-09-23T08:43:30.688Z,15.50
2017-09-23T08:45:59.544Z,15.70
2017-09-23T08:48:28.419Z,15.90
2017-09-23T08:50:57.339Z,16.00
2017-09-23T08:53:26.221Z,16.00
2017-09-23T08:55:54.896Z,16.00
2017-09-23T08:58:23.759Z,15.90
2017-09-23T09:00:52.597Z,16.00
2017-09-23T09:03:22.215Z,16.40
2017-09-23T09:05:52.567Z,16.70
2017-09-23T09:08:21.448Z,16.70
2017-09-23T09:10:50.319Z,16.90
2017-09-23T09:13:19.952Z,17.10
2017-09-23T09:15:50.213Z,17.10
2017-09-23T09:18:19.077Z,17.30
2017-09-23T09:20:47.962Z,17.50
2017-09-23T09:23:16.828Z,17.50
2017-09-23T09:25:46.795Z,17.80
2017-09-23T09:28:15.850Z,17.80
2017-09-23T09:30:44.717Z,18.00
2017-09-23T09:33:13.587Z,18.10
2017-09-23T09:35:42.463Z,18.10
2017-09-23T09:38:11.214Z,18.30
2017-09-23T09:40:40.071Z,18.80
2017-09-23T09:43:08.932Z,18.80
2017-09-23T09:45:38.522Z,18.80
2017-09-23T09:48:07.393Z,18.80
2017-09-23T09:50:36.261Z,18.90
2017-09-23T09:53:04.786Z,19.30
2017-09-23T09:55:33.502Z,19.70
2017-09-23T09:58:02.224Z,19.60
2017-09-23T10:00:31.851Z,19.50
2017-09-23T10:03:01.487Z,19.70
2017-09-23T10:05:30.349Z,19.60
2017-09-23T10:07:59.993Z,20.00
2017-09-23T10:10:28.893Z,20.00
2017-09-23T10:12:57.600Z,19.90
2017-09-23T10:15:27.623Z,20.00
2017-09-23T10:17:57.241Z,19.90
2017-09-23T10:20:26.098Z,20.00
2017-09-23T10:22:56.621Z,19.90
2017-09-23T10:25:25.664Z,19.90
2017-09-23T10:27:54.531Z,19.80
2017-09-23T10:30:23.436Z,20.00
2017-09-23T10:32:52.289Z,19.90
2017-09-23T10:35:21.159Z,19.90
2017-09-23T10:37:50.028Z,19.70
2017-09-23T10:40:19.684Z,19.40
2017-09-23T10:42:48.944Z,19.40
2017-09-23T10:45:18.550Z,19.20
2017-09-23T10:47:48.178Z,19.10
2017-09-23T10:50:17.040Z,19.10
2017-09-23T10:52:45.879Z,19.30
2017-09-23T10:55:14.712Z,19.30
2017-09-23T10:57:43.578Z,19.10
2017-09-23T11:00:12.440Z,18.90
2017-09-23T11:02:41.291Z,18.80
2017-09-23T11:05:10.132Z,18.70
2017-09-23T11:07:38.988Z,18.70
2017-09-23T11:10:08.599Z,18.70
2017-09-23T11:12:38.224Z,18.70
2017-09-23T11:15:06.928Z,18.70
2017-09-23T11:17:35.790Z,18.70
2017-09-23T11:20:05.420Z,18.60
2017-09-23T11:22:34.285Z,18.60
2017-09-23T11:25:03.157Z,18.50
2017-09-23T11:27:32.786Z,18.40
2017-09-23T11:30:02.397Z,18.40
2017-09-23T11:32:32.021Z,18.40
2017-09-23T11:35:00.909Z,18.40
2017-09-23T11:37:29.757Z,18.50
2017-09-23T11:39:58.264Z,18.40
2017-09-23T11:42:27.886Z,18.30
2017-09-23T11:44:56.743Z,18.30
2017-09-23T11:47:25.677Z,18.40
2017-09-23T11:49:54.523Z,18.40
2017-09-23T11:52:23.389Z,18.40
2017-09-23T11:54:52.231Z,18.50
2017-09-23T11:57:21.860Z,19.00
2017-09-23T11:59:50.724Z,18.90
2017-09-23T12:02:20.377Z,18.90
2017-09-23T12:04:49.244Z,18.90
2017-09-23T12:07:18.103Z,18.70
2017-09-23T12:09:46.777Z,18.60
2017-09-23T12:12:15.636Z,18.60
2017-09-23T12:14:44.487Z,18.50
2017-09-23T12:17:14.101Z,18.50
2017-09-23T12:19:44.044Z,18.40
2017-09-23T12:22:12.899Z,18.40
2017-09-23T12:24:41.747Z,18.40
2017-09-23T12:27:10.607Z,18.40
2017-09-23T12:29:39.471Z,18.40
2017-09-23T12:32:09.105Z,18.30
2017-09-23T12:34:37.982Z,18.30
2017-09-23T12:37:09.487Z,18.50
2017-09-23T12:39:38.246Z,18.50
2017-09-23T12:42:07.056Z,18.60
2017-09-23T12:44:36.090Z,18.70
2017-09-23T12:47:05.740Z,19.00
2017-09-23T12:49:34.667Z,19.00
2017-09-23T12:52:03.571Z,18.90
2017-09-23T12:54:33.137Z,18.90
2017-09-23T12:57:02.028Z,18.90
2017-09-23T13:00:07.562Z,19.00
2017-09-23T13:02:36.451Z,18.80
2017-09-23T13:10:02.926Z,18.80
2017-09-23T13:12:31.777Z,18.90
2017-09-23T13:15:00.642Z,18.80
2017-09-23T13:20:02.504Z,18.60
2017-09-23T13:22:32.015Z,18.60
2017-09-23T13:25:00.961Z,18.80
2017-09-23T13:27:30.582Z,18.80
2017-09-23T13:30:00.202Z,18.90
2017-09-23T13:32:28.876Z,18.90
2017-09-23T13:34:58.404Z,18.80
2017-09-23T13:37:27.397Z,18.80
2017-09-23T13:39:56.284Z,18.70
2017-09-23T13:42:25.585Z,18.60
2017-09-23T13:44:54.433Z,18.60
2017-09-23T13:47:23.364Z,18.60
2017-09-23T13:49:53.257Z,18.80
2017-09-23T13:52:22.925Z,18.40
2017-09-23T13:54:51.828Z,18.40
2017-09-23T13:57:20.701Z,18.30
2017-09-23T13:59:50.371Z,18.20
2017-09-23T14:02:20.002Z,18.20
2017-09-23T14:04:48.874Z,18.20
2017-09-23T14:07:18.519Z,18.20
2017-09-23T14:09:47.377Z,18.10
2017-09-23T14:12:16.256Z,18.20
2017-09-23T14:14:45.920Z,18.20
2017-09-23T14:17:14.822Z,18.20
2017-09-23T14:19:44.729Z,18.20
2017-09-23T14:22:15.874Z,18.20
2017-09-23T14:24:45.586Z,18.20
2017-09-23T14:27:14.811Z,18.10
2017-09-23T14:29:44.652Z,17.80
2017-09-23T14:32:13.569Z,17.80
2017-09-23T14:34:43.227Z,17.80
2017-09-23T14:37:12.098Z,17.70
2017-09-23T14:39:40.983Z,17.70
2017-09-23T14:42:09.858Z,17.60
2017-09-23T14:44:38.742Z,17.60
2017-09-23T14:47:07.824Z,17.60
2017-09-23T14:49:36.705Z,17.70
2017-09-23T14:52:06.330Z,17.60
2017-09-23T14:54:36.215Z,17.60
2017-09-23T14:57:05.843Z,17.50
2017-09-23T14:59:35.444Z,17.50
2017-09-23T15:02:04.389Z,17.50
2017-09-23T15:04:34.712Z,17.40
2017-09-23T15:07:03.912Z,17.40
2017-09-23T15:09:34.748Z,17.40
2017-09-23T15:12:03.623Z,17.50
2017-09-23T15:14:36.420Z,17.50
2017-09-23T15:17:05.930Z,17.60
2017-09-23T15:19:34.764Z,17.50
2017-09-23T15:22:05.727Z,17.40
2017-09-23T15:24:34.579Z,17.40
2017-09-23T15:27:03.439Z,17.40
2017-09-23T15:29:32.319Z,17.40
2017-09-23T15:32:01.176Z,17.20
2017-09-23T15:34:31.908Z,17.20
2017-09-23T15:37:04.456Z,17.20
2017-09-23T15:39:33.696Z,17.20
2017-09-23T15:42:03.420Z,17.50
2017-09-23T15:44:32.288Z,17.40
2017-09-23T15:47:01.721Z,17.60
2017-09-23T15:49:37.070Z,17.60
2017-09-23T15:52:05.929Z,17.60
2017-09-23T15:54:36.792Z,17.60
2017-09-23T15:57:05.455Z,17.50
2017-09-23T15:59:34.797Z,17.60
2017-09-23T16:02:03.700Z,17.60
2017-09-23T16:04:32.620Z,17.50
2017-09-23T16:07:02.558Z,17.50
2017-09-23T16:09:32.075Z,17.60
2017-09-23T16:12:02.532Z,17.60
2017-09-23T16:14:32.170Z,17.60
2017-09-23T16:17:01.050Z,17.50
2017-09-23T16:19:29.933Z,17.50
2017-09-23T16:21:58.788Z,17.50
2017-09-23T16:24:29.026Z,17.50
2017-09-23T16:26:58.202Z,17.50
2017-09-23T16:29:28.814Z,17.20
2017-09-23T16:31:57.669Z,17.20
2017-09-23T16:34:26.555Z,17.10
2017-09-23T16:36:55.444Z,17.10
2017-09-23T16:39:24.352Z,17.20
2017-09-23T16:41:53.220Z,17.20
2017-09-23T16:44:22.051Z,17.20
2017-09-23T16:46:50.882Z,17.20
2017-09-23T16:49:20.683Z,17.00
2017-09-23T16:51:49.644Z,17.00
2017-09-23T16:54:18.792Z,17.00
2017-09-23T16:56:47.705Z,16.90
2017-09-23T16:59:16.561Z,16.90
2017-09-23T17:01:46.178Z,16.70
2017-09-23T17:04:15.398Z,16.70
2017-09-23T17:06:44.939Z,16.70
2017-09-23T17:09:14.604Z,16.60
2017-09-23T17:11:43.454Z,16.50
2017-09-23T17:14:12.304Z,16.50
2017-09-23T17:16:41.168Z,16.40
2017-09-23T17:19:10.851Z,16.40
2017-09-23T17:21:41.748Z,16.40
2017-09-23T17:24:16.341Z,16.30
2017-09-23T17:26:45.703Z,16.40
2017-09-23T17:29:15.873Z,16.30
2017-09-23T17:31:44.893Z,16.40
2017-09-23T17:34:13.764Z,16.50
2017-09-23T17:36:43.435Z,16.50
2017-09-23T17:39:13.816Z,16.10
2017-09-23T17:41:43.481Z,16.10
2017-09-23T17:44:13.315Z,16.20
2017-09-23T17:46:42.174Z,16.30
2017-09-23T17:49:11.027Z,16.30
2017-09-23T17:51:40.672Z,16.20
2017-09-23T17:54:10.285Z,16.20
2017-09-23T17:56:39.138Z,16.30
2017-09-23T17:59:09.161Z,16.30
2017-09-23T18:01:44.666Z,16.20
2017-09-23T18:04:13.526Z,16.20
2017-09-23T18:06:42.378Z,16.00
2017-09-23T18:09:12.770Z,15.80
2017-09-23T18:11:42.059Z,15.70
2017-09-23T18:14:11.380Z,15.70
2017-09-23T18:19:16.498Z,15.80
2017-09-23T18:21:46.126Z,15.20
2017-09-23T18:24:15.620Z,15.00
2017-09-23T18:26:45.613Z,15.00
2017-09-23T18:29:14.473Z,14.70
2017-09-23T18:31:44.220Z,14.50
2017-09-23T18:34:14.114Z,14.40
2017-09-23T18:36:43.008Z,14.20
2017-09-23T18:39:14.237Z,14.10
2017-09-23T18:41:45.364Z,14.10
2017-09-23T18:44:16.144Z,13.90
2017-09-23T18:46:45.008Z,13.90
2017-09-23T18:49:14.247Z,13.90
2017-09-23T18:51:43.108Z,13.70
2017-09-23T18:54:11.980Z,13.70
2017-09-23T18:56:40.256Z,13.60
2017-09-23T18:59:12.019Z,13.60
2017-09-23T19:01:42.059Z,13.40
2017-09-23T19:04:10.915Z,13.40
2017-09-23T19:06:39.787Z,13.40
2017-09-23T19:09:09.574Z,13.50
2017-09-23T19:11:38.521Z,13.40
2017-09-23T19:14:07.376Z,13.40
2017-09-23T19:16:36.241Z,13.40
2017-09-23T19:19:05.301Z,13.50
2017-09-23T19:21:34.221Z,13.60
2017-09-23T19:24:02.974Z,13.60
2017-09-23T19:26:31.853Z,13.70
2017-09-23T19:29:01.516Z,13.60
2017-09-23T19:31:30.809Z,13.60
2017-09-23T19:33:59.660Z,13.60
2017-09-23T19:36:29.499Z,13.70
2017-09-23T19:38:58.351Z,13.60
2017-09-23T19:41:27.215Z,13.70
2017-09-23T19:43:56.064Z,13.70
2017-09-23T19:46:25.792Z,13.70
2017-09-23T19:48:59.713Z,13.70
2017-09-23T19:54:08.864Z,13.70
2017-09-23T19:56:41.839Z,13.60
2017-09-23T20:04:23.989Z,13.40
2017-09-23T20:06:52.942Z,13.40
2017-09-23T20:09:22.313Z,13.40
2017-09-23T20:14:28.734Z,13.30
2017-09-23T20:17:04.007Z,13.30
2017-09-23T20:22:31.387Z,13.30
2017-09-23T20:27:40.889Z,13.20
2017-09-23T20:30:15.970Z,13.30
2017-09-23T20:32:49.545Z,13.40
2017-09-23T20:35:18.443Z,13.40
2017-09-23T20:37:57.229Z,13.40
2017-09-23T20:40:35.054Z,13.30
2017-09-23T20:43:05.792Z,13.30
2017-09-23T20:45:37.867Z,13.20
2017-09-23T20:50:44.238Z,13.30
2017-09-23T20:53:13.209Z,13.20
2017-09-23T20:55:42.117Z,13.30
2017-09-23T21:01:05.706Z,13.20
2017-09-23T21:03:39.214Z,13.20
2017-09-23T21:06:13.142Z,13.10
2017-09-23T21:08:47.247Z,13.00
2017-09-23T21:11:18.032Z,13.00
2017-09-23T21:13:46.880Z,13.10
2017-09-23T21:19:11.194Z,13.00
2017-09-23T21:21:43.956Z,12.80
2017-09-23T21:24:12.879Z,12.80
2017-09-23T21:26:44.716Z,12.90
2017-09-23T21:29:15.145Z,12.90
2017-09-23T21:31:45.213Z,12.90
2017-09-23T21:34:14.068Z,12.90
2017-09-23T21:39:17.789Z,13.00
2017-09-23T21:41:47.677Z,12.90
2017-09-23T21:44:17.612Z,12.90
2017-09-23T21:46:46.497Z,12.90
2017-09-23T21:49:15.590Z,12.90
2017-09-23T21:51:45.200Z,13.00
2017-09-23T21:54:16.400Z,13.10
2017-09-23T21:56:45.240Z,13.10
2017-09-23T21:59:14.921Z,13.10
2017-09-23T22:01:44.627Z,13.10
2017-09-23T22:04:15.415Z,13.10
2017-09-23T22:06:45.864Z,13.10
2017-09-23T22:09:14.716Z,13.00
2017-09-23T22:11:44.321Z,13.10
2017-09-23T22:14:13.177Z,13.10
2017-09-23T22:16:42.053Z,13.10
2017-09-23T22:19:10.891Z,13.20
2017-09-23T22:21:39.788Z,13.20
2017-09-23T22:24:09.635Z,13.20
2017-09-23T22:26:38.910Z,13.30
2017-09-23T22:29:07.764Z,13.30
2017-09-23T22:31:37.199Z,13.40
2017-09-23T22:34:06.051Z,13.30
2017-09-23T22:36:34.923Z,13.40
2017-09-23T22:39:03.261Z,13.40
2017-09-23T22:41:32.112Z,13.40
2017-09-23T22:44:01.788Z,13.40
2017-09-23T22:46:30.661Z,13.40
2017-09-23T22:48:59.536Z,13.40
2017-09-23T22:51:28.396Z,13.40
2017-09-23T22:53:57.839Z,13.30
2017-09-23T22:56:26.368Z,13.30
2017-09-23T22:58:55.234Z,13.30
2017-09-23T23:01:24.104Z,13.20
2017-09-23T23:03:52.993Z,13.10
2017-09-23T23:06:22.091Z,13.10
2017-09-23T23:08:50.965Z,13.00
2017-09-23T23:11:21.234Z,12.90
2017-09-23T23:13:50.099Z,12.90
2017-09-23T23:16:18.956Z,12.90
2017-09-23T23:18:48.601Z,12.80
2017-09-23T23:21:17.459Z,12.80
2017-09-23T23:23:46.335Z,12.70
2017-09-23T23:26:15.209Z,12.70
2017-09-23T23:28:44.073Z,12.60
2017-09-23T23:31:12.910Z,12.60
2017-09-23T23:33:41.758Z,12.50
2017-09-23T23:36:10.628Z,12.50
2017-09-23T23:38:40.236Z,12.30
2017-09-23T23:41:09.839Z,12.30
2017-09-23T23:43:39.469Z,12.30
2017-09-23T23:46:08.315Z,12.30
2017-09-23T23:48:37.153Z,12.30
2017-09-23T23:51:06.807Z,12.30
2017-09-23T23:53:35.768Z,12.30
2017-09-23T23:56:04.741Z,12.30
2017-09-23T23:58:37.732Z,12.30
